Time;durP1;ratioP1;P1;durP2;ratioP2;P2;SDS_P1;SDS_P2;PMS_P1;PMS_P2;Temp;Humidity;BMP_temperature;BMP_pressure;BME280_temperature;BME280_humidity;BME280_pressure;Samples;Min_cycle;Max_cycle;Signal;HPM_P1;HPM_P2
2022/04/22 00:00:16;;;;;;;1.27;1.27;;;;;;;;;;5054465;28;20031;-59
2022/04/22 00:02:41;;;;;;;0.65;0.65;;;;;;;;;;5054111;28;20397;-58
2022/04/22 00:05:07;;;;;;;3.13;2.70;;;;;;;;;;5056227;28;20052;-58
2022/04/22 00:07:32;;;;;;;1.42;1.33;;;;;;;;;;5054363;28;20032;-59
2022/04/22 00:09:57;;;;;;;3.50;3.20;;;;;;;;;;5053077;28;20021;-58
2022/04/22 00:12:22;;;;;;;1.23;1.17;;;;;;;;;;5054479;28;20174;-58
2022/04/22 00:14:48;;;;;;;2.13;1.85;;;;;;;;;;5053986;28;20458;-58
2022/04/22 00:17:13;;;;;;;1.75;1.65;;;;;;;;;;5054815;28;20029;-58
2022/04/22 00:19:38;;;;;;;1.85;1.83;;;;;;;;;;5054094;28;20029;-58
2022/04/22 00:22:04;;;;;;;0.00;0.00;;;;;;;;;;5052824;28;20421;-58
2022/04/22 00:24:29;;;;;;;2.60;2.40;;;;;;;;;;5054090;28;20119;-59
2022/04/22 00:26:55;;;;;;;1.52;1.45;;;;;;;;;;5062568;28;20073;-60
2022/04/22 00:29:20;;;;;;;4.05;3.75;;;;;;;;;;5079073;28;20044;-59
2022/04/22 00:31:45;;;;;;;1.60;1.52;;;;;;;;;;5070482;28;20025;-59
2022/04/22 00:34:10;;;;;;;7.28;6.68;;;;;;;;;;5077176;28;20027;-58
2022/04/22 00:36:36;;;;;;;0.32;0.32;;;;;;;;;;5074065;28;20043;-59
2022/04/22 00:39:01;;;;;;;10.63;3.00;;;;;;;;;;5078580;28;20016;-59
2022/04/22 00:41:27;;;;;;;1.25;1.25;;;;;;;;;;5074684;28;20025;-59
2022/04/22 00:43:53;;;;;;;1.27;1.27;;;;;;;;;;5071989;28;20037;-59
2022/04/22 00:46:18;;;;;;;1.77;1.67;;;;;;;;;;5070437;28;20016;-59
2022/04/22 00:48:44;;;;;;;3.08;2.88;;;;;;;;;;5069961;28;20104;-59
2022/04/22 00:51:10;;;;;;;1.17;0.95;;;;;;;;;;5067410;28;20013;-57
2022/04/22 00:53:43;;;;;;;1.85;1.75;;;;;;;;;;5066826;28;20025;-58
2022/04/22 00:56:10;;;;;;;0.73;0.73;;;;;;;;;;5066067;28;20020;-58
2022/04/22 00:58:36;;;;;;;2.30;1.38;;;;;;;;;;5070154;28;20174;-57
2022/04/22 01:01:02;;;;;;;4.95;1.75;;;;;;;;;;5069476;28;20112;-58
2022/04/22 01:03:28;;;;;;;4.97;3.22;;;;;;;;;;5068545;28;20552;-57
2022/04/22 01:11:21;;;;;;;2.15;2.05;;;;;;;;;;5070223;28;20027;-58
2022/04/22 01:13:46;;;;;;;2.92;2.78;;;;;;;;;;5068249;28;20020;-58
2022/04/22 01:16:11;;;;;;;2.35;2.15;;;;;;;;;;5068461;28;20070;-58
2022/04/22 01:18:37;;;;;;;4.72;4.53;;;;;;;;;;5065457;28;20024;-58
2022/04/22 01:21:02;;;;;;;1.45;1.33;;;;;;;;;;5066451;28;20032;-58
2022/04/22 01:23:28;;;;;;;6.95;4.15;;;;;;;;;;5068376;28;20190;-57
2022/04/22 01:25:53;;;;;;;3.70;3.47;;;;;;;;;;5068575;28;20024;-57
2022/04/22 01:28:19;;;;;;;5.70;3.65;;;;;;;;;;5069232;28;20044;-58
2022/04/22 01:30:45;;;;;;;6.03;3.83;;;;;;;;;;5069603;28;20096;-58
2022/04/22 01:33:10;;;;;;;1.10;1.08;;;;;;;;;;5066186;28;20021;-58
2022/04/22 01:35:35;;;;;;;2.67;2.47;;;;;;;;;;5070483;28;20021;-57
2022/04/22 01:38:00;;;;;;;1.73;1.67;;;;;;;;;;5067016;28;20025;-59
2022/04/22 01:40:25;;;;;;;1.77;1.67;;;;;;;;;;5073594;28;20468;-58
2022/04/22 01:42:51;;;;;;;5.20;3.60;;;;;;;;;;5069948;28;20112;-58
2022/04/22 01:45:16;;;;;;;3.53;3.00;;;;;;;;;;5077453;28;20089;-58
2022/04/22 01:47:41;;;;;;;4.00;1.42;;;;;;;;;;5073332;28;20067;-58
2022/04/22 01:50:07;;;;;;;1.00;0.52;;;;;;;;;;5076350;28;20028;-59
2022/04/22 01:52:32;;;;;;;0.00;0.00;;;;;;;;;;5069899;28;20026;-58
2022/04/22 01:54:57;;;;;;;0.70;0.65;;;;;;;;;;5074583;28;20031;-56
2022/04/22 01:57:22;;;;;;;1.50;1.10;;;;;;;;;;5068176;28;20056;-56
2022/04/22 01:59:48;;;;;;;1.02;0.57;;;;;;;;;;5070532;28;20048;-57
2022/04/22 02:02:14;;;;;;;1.90;1.80;;;;;;;;;;5065464;28;20053;-57
2022/04/22 02:04:40;;;;;;;3.40;1.85;;;;;;;;;;5073347;28;20016;-53
2022/04/22 02:07:05;;;;;;;0.45;0.45;;;;;;;;;;5068952;28;20081;-57
2022/04/22 02:09:31;;;;;;;0.00;0.00;;;;;;;;;;5065137;28;20024;-56
2022/04/22 02:11:58;;;;;;;5.13;4.78;;;;;;;;;;5070892;28;20027;-57
2022/04/22 02:14:25;;;;;;;1.73;1.17;;;;;;;;;;5075748;28;20394;-57
2022/04/22 02:16:50;;;;;;;1.55;1.55;;;;;;;;;;5074781;28;20431;-57
2022/04/22 02:19:15;;;;;;;1.88;1.77;;;;;;;;;;5074279;28;20054;-58
2022/04/22 02:21:41;;;;;;;5.95;4.40;;;;;;;;;;5064406;28;20044;-58
2022/04/22 02:24:06;;;;;;;1.70;1.60;;;;;;;;;;5078766;28;20039;-58
2022/04/22 02:28:31;;;;;;;2.85;2.63;;;;;;;;;;5073512;28;20040;-58
2022/04/22 02:29:17;;;;;;;5.20;4.75;;;;;;;;;;5069138;28;20182;-58
2022/04/22 02:31:43;;;;;;;4.22;2.75;;;;;;;;;;5070303;28;20025;-58
2022/04/22 02:34:08;;;;;;;5.60;3.00;;;;;;;;;;5066930;28;20100;-58
2022/04/22 02:36:34;;;;;;;5.05;2.88;;;;;;;;;;5083973;28;20055;-58
2022/04/22 02:38:59;;;;;;;8.23;2.53;;;;;;;;;;5069866;28;20020;-58
2022/04/22 02:46:52;;;;;;;0.55;0.55;;;;;;;;;;5075200;28;20064;-58
2022/04/22 02:49:17;;;;;;;0.08;0.08;;;;;;;;;;5071217;28;20048;-59
2022/04/22 02:51:42;;;;;;;4.03;2.65;;;;;;;;;;5075048;28;20023;-59
2022/04/22 02:54:08;;;;;;;1.27;1.27;;;;;;;;;;5083502;28;20016;-59
2022/04/22 02:56:33;;;;;;;2.38;2.28;;;;;;;;;;5059793;28;20020;-59
2022/04/22 02:58:59;;;;;;;2.67;0.95;;;;;;;;;;5077311;28;20107;-57
2022/04/22 03:01:24;;;;;;;1.42;1.33;;;;;;;;;;5076889;28;20016;-57
2022/04/22 03:03:50;;;;;;;1.15;1.15;;;;;;;;;;5070254;28;20024;-59
2022/04/22 03:06:15;;;;;;;2.03;1.92;;;;;;;;;;5080009;28;20016;-58
2022/04/22 03:08:40;;;;;;;3.10;2.53;;;;;;;;;;5071413;28;20021;-58
2022/04/22 03:11:05;;;;;;;1.23;0.88;;;;;;;;;;5078890;28;20391;-59
2022/04/22 03:13:30;;;;;;;1.70;1.45;;;;;;;;;;5070543;28;20056;-59
2022/04/22 03:15:56;;;;;;;0.93;0.93;;;;;;;;;;5080012;28;20028;-59
2022/04/22 03:18:22;;;;;;;0.00;0.00;;;;;;;;;;5078860;28;20024;-59
2022/04/22 03:20:47;;;;;;;0.88;0.88;;;;;;;;;;5081248;28;20047;-60
2022/04/22 03:23:12;;;;;;;0.00;0.00;;;;;;;;;;5078021;28;20047;-59
2022/04/22 03:25:37;;;;;;;0.00;0.00;;;;;;;;;;5074693;28;20032;-59
2022/04/22 03:28:03;;;;;;;0.00;0.00;;;;;;;;;;5057529;28;20500;-58
2022/04/22 03:30:28;;;;;;;0.00;0.00;;;;;;;;;;5073182;28;20382;-60
2022/04/22 03:32:54;;;;;;;3.08;2.10;;;;;;;;;;5073039;28;20150;-59
2022/04/22 03:35:19;;;;;;;0.00;0.00;;;;;;;;;;5082540;28;20024;-59
2022/04/22 03:37:44;;;;;;;0.00;0.00;;;;;;;;;;5071843;28;20020;-59
2022/04/22 03:40:10;;;;;;;0.80;0.80;;;;;;;;;;5075948;28;20473;-59
2022/04/22 03:42:36;;;;;;;6.13;3.97;;;;;;;;;;5075741;28;20024;-59
2022/04/22 03:45:02;;;;;;;0.57;0.57;;;;;;;;;;5077932;28;20401;-58
2022/04/22 03:47:27;;;;;;;0.50;0.50;;;;;;;;;;5074783;28;20031;-59
2022/04/22 03:49:52;;;;;;;0.88;0.88;;;;;;;;;;5080111;28;20424;-59
2022/04/22 03:52:18;;;;;;;0.00;0.00;;;;;;;;;;5079483;28;20134;-58
2022/04/22 03:54:43;;;;;;;0.57;0.57;;;;;;;;;;5075238;28;20020;-59
2022/04/22 03:59:54;;;;;;;0.45;0.45;;;;;;;;;;5074241;28;20121;-59
2022/04/22 04:02:19;;;;;;;2.20;2.20;;;;;;;;;;5075276;28;20048;-59
2022/04/22 04:04:45;;;;;;;7.35;4.57;;;;;;;;;;5073114;28;20013;-60
2022/04/22 04:07:10;;;;;;;2.30;2.15;;;;;;;;;;5066494;28;20024;-60
2022/04/22 04:17:46;;;;;;;1.75;1.73;;;;;;;;;;5068658;28;20034;-58
2022/04/22 04:25:40;;;;;;;0.17;0.15;;;;;;;;;;5075491;28;20158;-59
2022/04/22 04:28:06;;;;;;;0.00;0.00;;;;;;;;;;5074855;28;20063;-57
2022/04/22 04:30:31;;;;;;;1.90;1.75;;;;;;;;;;5074270;28;20027;-58
2022/04/22 04:32:57;;;;;;;0.93;0.93;;;;;;;;;;5075821;28;20024;-58
2022/04/22 04:35:22;;;;;;;0.55;0.50;;;;;;;;;;5073956;28;20040;-58
2022/04/22 04:37:47;;;;;;;1.35;1.25;;;;;;;;;;5075211;28;20022;-57
2022/04/22 04:40:12;;;;;;;0.00;0.00;;;;;;;;;;5071726;28;20024;-58
2022/04/22 04:42:37;;;;;;;0.00;0.00;;;;;;;;;;5078477;28;20061;-59
2022/04/22 04:45:03;;;;;;;0.35;0.35;;;;;;;;;;5075356;28;20481;-59
2022/04/22 04:47:29;;;;;;;0.00;0.00;;;;;;;;;;5071847;28;20011;-59
2022/04/22 04:49:54;;;;;;;0.93;0.93;;;;;;;;;;5075953;28;20017;-56
2022/04/22 04:52:20;;;;;;;0.00;0.00;;;;;;;;;;5070373;28;20017;-58
2022/04/22 04:54:46;;;;;;;0.90;0.90;;;;;;;;;;5068249;28;20056;-56
2022/04/22 04:57:11;;;;;;;1.05;1.05;;;;;;;;;;5071312;28;20039;-59
2022/04/22 04:59:37;;;;;;;0.00;0.00;;;;;;;;;;5069694;28;20021;-59
2022/04/22 05:02:02;;;;;;;0.00;0.00;;;;;;;;;;5061486;28;20024;-60
2022/04/22 05:04:27;;;;;;;1.27;1.27;;;;;;;;;;5074119;28;20024;-59
2022/04/22 05:06:52;;;;;;;0.55;0.28;;;;;;;;;;5059848;28;20012;-59
2022/04/22 05:09:18;;;;;;;2.45;1.98;;;;;;;;;;5074035;28;20479;-59
2022/04/22 05:11:43;;;;;;;2.90;2.75;;;;;;;;;;5068382;28;20442;-58
2022/04/22 05:14:08;;;;;;;3.30;3.00;;;;;;;;;;5075509;28;20065;-58
2022/04/22 05:16:33;;;;;;;0.32;0.32;;;;;;;;;;5078569;28;20036;-59
2022/04/22 05:18:58;;;;;;;1.40;1.40;;;;;;;;;;5065808;28;20024;-59
2022/04/22 05:21:24;;;;;;;2.63;2.53;;;;;;;;;;5065468;28;20480;-59
2022/04/22 05:23:49;;;;;;;0.38;0.38;;;;;;;;;;5053900;28;20055;-59
2022/04/22 05:26:14;;;;;;;5.00;2.42;;;;;;;;;;5066900;28;20056;-58
2022/04/22 05:28:39;;;;;;;2.60;1.52;;;;;;;;;;5066811;28;20055;-59
2022/04/22 05:33:48;;;;;;;10.30;3.42;;;;;;;;;;5068764;28;20083;-59
2022/04/22 05:36:13;;;;;;;0.73;0.73;;;;;;;;;;5065837;28;20052;-60
2022/04/22 05:38:39;;;;;;;2.45;0.43;;;;;;;;;;5068235;28;20063;-59
2022/04/22 05:41:04;;;;;;;15.02;3.03;;;;;;;;;;5067538;28;20140;-59
2022/04/22 05:43:29;;;;;;;0.00;0.00;;;;;;;;;;5067556;28;20090;-59
2022/04/22 05:45:54;;;;;;;2.30;1.92;;;;;;;;;;5067873;28;20020;-59
2022/04/22 05:48:20;;;;;;;4.65;2.70;;;;;;;;;;5068300;28;20361;-59
2022/04/22 05:50:45;;;;;;;0.40;0.40;;;;;;;;;;5068650;28;20020;-59
2022/04/22 05:53:10;;;;;;;0.22;0.22;;;;;;;;;;5069202;28;21623;-59
2022/04/22 05:55:36;;;;;;;2.00;1.90;;;;;;;;;;5068634;28;20028;-61
2022/04/22 05:58:01;;;;;;;4.00;2.50;;;;;;;;;;5067919;28;20028;-58
2022/04/22 06:00:28;;;;;;;1.98;0.90;;;;;;;;;;5068521;28;20031;-58
2022/04/22 06:02:54;;;;;;;0.22;0.22;;;;;;;;;;5068528;28;20099;-59
2022/04/22 06:05:22;;;;;;;1.17;1.17;;;;;;;;;;5067892;28;20111;-59
2022/04/22 06:10:31;;;;;;;0.38;0.38;;;;;;;;;;5067352;28;20473;-59
2022/04/22 06:10:33;;;;;;;0.13;0.13;;;;;;;;;;5067549;28;20115;-59
2022/04/22 06:12:59;;;;;;;2.42;0.60;;;;;;;;;;5067768;28;20095;-59
2022/04/22 06:15:25;;;;;;;1.80;1.27;;;;;;;;;;5068268;28;20029;-58
2022/04/22 06:17:50;;;;;;;0.65;0.65;;;;;;;;;;5068384;28;20067;-59
2022/04/22 06:20:15;;;;;;;1.90;0.98;;;;;;;;;;5067697;28;20495;-60
2022/04/22 06:22:41;;;;;;;0.68;0.68;;;;;;;;;;5066918;28;20073;-60
2022/04/22 06:25:08;;;;;;;0.00;0.00;;;;;;;;;;5066859;28;20025;-60
2022/04/22 06:27:34;;;;;;;0.47;0.47;;;;;;;;;;5066095;28;20044;-60
2022/04/22 06:30:03;;;;;;;0.10;0.10;;;;;;;;;;5066717;28;20035;-60
2022/04/22 06:32:28;;;;;;;3.30;3.00;;;;;;;;;;5066954;28;20031;-60
2022/04/22 06:34:53;;;;;;;1.17;1.08;;;;;;;;;;5067895;28;20028;-60
2022/04/22 06:37:19;;;;;;;0.00;0.00;;;;;;;;;;5065513;28;20457;-60
2022/04/22 06:47:56;;;;;;;1.35;1.25;;;;;;;;;;5065621;28;20086;-59
2022/04/22 06:50:22;;;;;;;1.17;1.17;;;;;;;;;;5068119;28;20017;-60
2022/04/22 06:52:47;;;;;;;0.40;0.40;;;;;;;;;;5067948;28;20024;-60
2022/04/22 06:55:19;;;;;;;5.05;4.40;;;;;;;;;;5067179;28;20562;-60
2022/04/22 06:57:46;;;;;;;2.17;2.08;;;;;;;;;;5067178;28;20047;-60
2022/04/22 07:00:11;;;;;;;0.00;0.00;;;;;;;;;;5067280;28;20017;-60
2022/04/22 07:02:36;;;;;;;0.00;0.00;;;;;;;;;;5067617;28;20397;-60
2022/04/22 07:05:02;;;;;;;0.00;0.00;;;;;;;;;;5067162;28;20021;-60
2022/04/22 07:07:27;;;;;;;1.65;1.55;;;;;;;;;;5067718;28;20031;-60
2022/04/22 07:09:53;;;;;;;1.95;1.88;;;;;;;;;;5066808;28;20024;-60
2022/04/22 07:12:18;;;;;;;0.40;0.40;;;;;;;;;;5067099;28;20032;-60
2022/04/22 07:14:45;;;;;;;1.27;1.27;;;;;;;;;;5067679;28;20028;-60
2022/04/22 07:17:11;;;;;;;2.03;1.92;;;;;;;;;;5067068;28;20103;-60
2022/04/22 07:19:36;;;;;;;2.25;2.05;;;;;;;;;;5069345;28;20024;-60
2022/04/22 07:22:01;;;;;;;1.75;1.38;;;;;;;;;;5070725;28;20016;-60
2022/04/22 07:24:27;;;;;;;2.50;2.30;;;;;;;;;;5071283;28;20016;-60
2022/04/22 07:26:54;;;;;;;1.38;1.20;;;;;;;;;;5070963;28;20089;-60
2022/04/22 07:29:20;;;;;;;2.08;1.98;;;;;;;;;;5070627;28;20174;-60
2022/04/22 07:31:47;;;;;;;3.03;2.83;;;;;;;;;;5071046;28;20386;-60
2022/04/22 07:34:12;;;;;;;2.28;2.10;;;;;;;;;;5070962;28;20048;-58
2022/04/22 07:36:38;;;;;;;4.53;4.22;;;;;;;;;;5069646;28;20117;-59
2022/04/22 07:39:03;;;;;;;0.20;0.20;;;;;;;;;;5070427;28;20029;-60
2022/04/22 07:41:28;;;;;;;2.17;1.23;;;;;;;;;;5069567;28;20047;-60
2022/04/22 07:46:49;;;;;;;0.75;0.75;;;;;;;;;;5071857;28;20053;-59
2022/04/22 07:49:14;;;;;;;2.78;2.42;;;;;;;;;;5070363;28;20039;-59
2022/04/22 07:51:40;;;;;;;1.33;0.68;;;;;;;;;;5070922;28;20465;-59
2022/04/22 07:54:07;;;;;;;2.38;1.80;;;;;;;;;;5070255;28;20036;-59
2022/04/22 07:56:32;;;;;;;0.00;0.00;;;;;;;;;;5070682;28;20028;-59
2022/04/22 07:58:58;;;;;;;1.70;1.45;;;;;;;;;;5070881;28;20415;-59
2022/04/22 08:01:24;;;;;;;0.00;0.00;;;;;;;;;;5070193;28;20028;-59
2022/04/22 08:03:50;;;;;;;1.77;1.35;;;;;;;;;;5069955;28;20093;-59
2022/04/22 08:06:15;;;;;;;0.88;0.30;;;;;;;;;;5069678;28;20032;-59
2022/04/22 08:08:40;;;;;;;0.35;0.30;;;;;;;;;;5070276;28;20025;-59
2022/04/22 08:11:06;;;;;;;0.88;0.88;;;;;;;;;;5067596;28;20626;-59
2022/04/22 08:13:32;;;;;;;0.15;0.15;;;;;;;;;;5070276;28;20461;-59
2022/04/22 08:15:58;;;;;;;2.05;0.98;;;;;;;;;;5070847;28;20366;-59
2022/04/22 08:18:23;;;;;;;2.38;0.95;;;;;;;;;;5070241;28;20042;-59
2022/04/22 08:20:49;;;;;;;0.45;0.45;;;;;;;;;;5069977;28;20426;-59
2022/04/22 08:23:16;;;;;;;2.95;2.38;;;;;;;;;;5069826;28;20021;-59
2022/04/22 08:25:42;;;;;;;2.40;1.45;;;;;;;;;;5069893;28;20140;-59
2022/04/22 08:28:07;;;;;;;2.25;2.08;;;;;;;;;;5069676;28;20503;-59
2022/04/22 08:30:35;;;;;;;5.82;2.08;;;;;;;;;;5069164;28;20035;-59
2022/04/22 08:33:01;;;;;;;2.00;1.90;;;;;;;;;;5069823;28;20050;-59
2022/04/22 08:35:26;;;;;;;2.38;2.17;;;;;;;;;;5068939;28;20330;-58
2022/04/22 08:37:51;;;;;;;7.30;2.28;;;;;;;;;;5068276;28;20024;-58
2022/04/22 08:40:17;;;;;;;1.65;1.55;;;;;;;;;;5069080;28;20468;-59
2022/04/22 08:42:43;;;;;;;0.80;0.80;;;;;;;;;;5068920;28;20140;-59
2022/04/22 08:45:09;;;;;;;2.13;2.03;;;;;;;;;;5067167;28;20029;-59
2022/04/22 08:50:22;;;;;;;0.98;0.98;;;;;;;;;;5069101;28;20027;-59
2022/04/22 08:53:18;;;;;;;0.80;0.80;;;;;;;;;;5069886;28;20458;-59
2022/04/22 08:55:44;;;;;;;1.02;1.00;;;;;;;;;;5056075;28;20120;-58
2022/04/22 08:58:10;;;;;;;0.85;0.85;;;;;;;;;;5069074;28;20115;-59
2022/04/22 09:00:36;;;;;;;0.00;0.00;;;;;;;;;;5069503;28;20390;-59
2022/04/22 09:03:01;;;;;;;0.75;0.75;;;;;;;;;;5069122;28;20082;-58
2022/04/22 09:05:27;;;;;;;0.45;0.45;;;;;;;;;;5067814;28;20103;-59
2022/04/22 09:07:53;;;;;;;0.98;0.98;;;;;;;;;;5069284;28;20439;-59
2022/04/22 09:10:18;;;;;;;0.00;0.00;;;;;;;;;;5068352;28;20019;-59
2022/04/22 09:12:54;;;;;;;1.58;1.20;;;;;;;;;;5068061;28;20028;-59
2022/04/22 09:15:23;;;;;;;0.85;0.68;;;;;;;;;;5068769;28;20051;-59
2022/04/22 09:17:49;;;;;;;0.70;0.70;;;;;;;;;;5067931;28;20029;-59
2022/04/22 09:20:17;;;;;;;3.65;1.88;;;;;;;;;;5068339;28;20020;-59
2022/04/22 09:22:45;;;;;;;0.98;0.98;;;;;;;;;;5067476;28;20017;-60
2022/04/22 09:25:11;;;;;;;2.38;2.10;;;;;;;;;;5068670;28;20036;-59
2022/04/22 09:27:37;;;;;;;3.95;3.63;;;;;;;;;;5069109;28;20081;-59
2022/04/22 09:30:03;;;;;;;2.20;1.77;;;;;;;;;;5068893;28;20444;-59
2022/04/22 09:32:31;;;;;;;2.80;2.45;;;;;;;;;;5067888;28;20025;-58
2022/04/22 09:34:57;;;;;;;0.38;0.38;;;;;;;;;;5067094;28;20029;-59
2022/04/22 09:42:51;;;;;;;1.58;1.45;;;;;;;;;;5067559;28;20081;-59
2022/04/22 09:45:17;;;;;;;5.22;1.98;;;;;;;;;;5066981;28;20099;-58
2022/04/22 09:47:42;;;;;;;3.58;1.23;;;;;;;;;;5067331;28;21498;-58
2022/04/22 09:50:12;;;;;;;0.52;0.52;;;;;;;;;;5067705;28;20021;-59
2022/04/22 09:52:46;;;;;;;1.10;1.10;;;;;;;;;;5068398;28;20052;-58
2022/04/22 09:55:15;;;;;;;2.70;2.53;;;;;;;;;;5047653;28;20032;-59
2022/04/22 09:57:54;;;;;;;2.13;1.92;;;;;;;;;;5068676;28;20074;-61
2022/04/22 10:00:20;;;;;;;1.02;1.02;;;;;;;;;;5066696;28;20131;-61
2022/04/22 10:02:48;;;;;;;1.27;1.27;;;;;;;;;;5067574;28;20024;-61
2022/04/22 10:05:13;;;;;;;2.63;2.42;;;;;;;;;;5067527;28;20150;-61
2022/04/22 10:07:42;;;;;;;2.35;2.15;;;;;;;;;;5068607;28;20135;-61
2022/04/22 10:10:07;;;;;;;4.23;2.77;;;;;;;;;;5068599;28;20028;-60
2022/04/22 10:12:34;;;;;;;0.35;0.35;;;;;;;;;;5068368;28;20032;-59
2022/04/22 10:15:01;;;;;;;1.35;1.35;;;;;;;;;;5068529;28;20405;-60
2022/04/22 10:17:26;;;;;;;4.22;2.85;;;;;;;;;;5067769;28;20027;-61
2022/04/22 10:19:53;;;;;;;3.60;3.25;;;;;;;;;;5068519;28;20017;-61
2022/04/22 10:22:18;;;;;;;2.90;2.70;;;;;;;;;;5069497;28;20123;-61
2022/04/22 10:24:44;;;;;;;1.58;1.55;;;;;;;;;;5066698;28;20100;-60
2022/04/22 10:27:10;;;;;;;2.72;2.25;;;;;;;;;;5067354;28;20068;-60
2022/04/22 10:29:36;;;;;;;3.15;2.95;;;;;;;;;;5068279;28;20021;-60
2022/04/22 10:32:05;;;;;;;5.68;2.22;;;;;;;;;;5045690;28;20183;-61
2022/04/22 10:34:37;;;;;;;1.98;1.88;;;;;;;;;;5067807;28;20035;-61
2022/04/22 10:37:04;;;;;;;1.83;1.00;;;;;;;;;;5068277;28;20032;-60
2022/04/22 10:39:33;;;;;;;2.53;2.33;;;;;;;;;;5066375;28;20036;-61
2022/04/22 10:41:59;;;;;;;1.38;1.25;;;;;;;;;;5067997;28;20416;-61
2022/04/22 10:47:14;;;;;;;1.85;1.75;;;;;;;;;;5067413;28;20024;-62
2022/04/22 10:49:40;;;;;;;2.35;2.15;;;;;;;;;;5067659;28;20027;-59
2022/04/22 10:52:11;;;;;;;1.98;1.17;;;;;;;;;;5068059;28;20080;-60
2022/04/22 10:54:59;;;;;;;3.22;1.77;;;;;;;;;;5069569;28;20035;-61
2022/04/22 10:57:25;;;;;;;3.45;3.15;;;;;;;;;;5060122;28;20043;-61
2022/04/22 11:00:03;;;;;;;0.93;0.93;;;;;;;;;;5071181;28;20039;-59
2022/04/22 11:02:29;;;;;;;0.63;0.63;;;;;;;;;;5071596;28;20036;-60
2022/04/22 11:05:13;;;;;;;0.55;0.55;;;;;;;;;;5071797;28;20547;-60
2022/04/22 11:07:50;;;;;;;2.78;2.58;;;;;;;;;;5071552;28;20051;-60
2022/04/22 11:10:15;;;;;;;2.38;2.15;;;;;;;;;;5070866;28;20036;-60
2022/04/22 11:12:54;;;;;;;2.10;2.00;;;;;;;;;;5071323;28;20389;-59
2022/04/22 11:15:38;;;;;;;1.03;1.03;;;;;;;;;;5047418;28;20067;-61
2022/04/22 11:18:03;;;;;;;2.95;2.70;;;;;;;;;;5070996;28;20108;-60
2022/04/22 11:20:28;;;;;;;2.05;0.98;;;;;;;;;;5070641;28;20091;-60
2022/04/22 11:22:57;;;;;;;1.75;1.65;;;;;;;;;;5072375;28;20103;-61
2022/04/22 11:25:26;;;;;;;1.17;1.08;;;;;;;;;;5070718;28;20538;-61
2022/04/22 11:27:55;;;;;;;1.55;1.45;;;;;;;;;;5070209;28;20082;-60
2022/04/22 11:30:20;;;;;;;1.20;1.20;;;;;;;;;;5070534;28;20097;-60
2022/04/22 11:32:47;;;;;;;4.25;2.58;;;;;;;;;;5071242;28;20262;-60
2022/04/22 11:35:19;;;;;;;2.72;2.13;;;;;;;;;;5070442;28;20021;-60
2022/04/22 11:37:44;;;;;;;1.08;1.05;;;;;;;;;;5071076;28;20372;-59
2022/04/22 11:40:17;;;;;;;1.63;1.52;;;;;;;;;;5070601;28;20024;-60
2022/04/22 11:42:43;;;;;;;1.67;1.58;;;;;;;;;;5071066;28;20074;-60
2022/04/22 11:45:15;;;;;;;1.23;1.20;;;;;;;;;;5071004;28;20054;-60
2022/04/22 11:47:41;;;;;;;1.92;0.88;;;;;;;;;;5072038;28;20024;-60
2022/04/22 11:50:07;;;;;;;1.45;1.35;;;;;;;;;;5070717;28;20031;-59
2022/04/22 11:52:32;;;;;;;0.70;0.70;;;;;;;;;;5049391;28;20031;-60
2022/04/22 11:55:01;;;;;;;1.55;1.45;;;;;;;;;;5048889;28;20100;-60
2022/04/22 11:57:27;;;;;;;0.75;0.75;;;;;;;;;;5069627;28;20723;-60
2022/04/22 12:05:36;;;;;;;;;;;;;;;;;;5069639;28;20039;-61
2022/04/22 12:08:02;;;;;;;2.63;2.33;;;;;;;;;;5069448;28;19909;-60
2022/04/22 12:10:27;;;;;;;2.72;2.50;;;;;;;;;;5069833;28;20024;-60
2022/04/22 12:12:56;;;;;;;0.00;0.00;;;;;;;;;;5069232;28;20017;-60
2022/04/22 12:15:21;;;;;;;4.00;1.63;;;;;;;;;;5069767;28;20522;-60
2022/04/22 12:17:46;;;;;;;2.33;2.13;;;;;;;;;;5069173;28;20279;-60
2022/04/22 12:20:12;;;;;;;1.48;1.38;;;;;;;;;;5069600;28;20028;-60
2022/04/22 12:22:38;;;;;;;0.03;0.03;;;;;;;;;;5069821;28;20397;-60
2022/04/22 12:25:09;;;;;;;2.20;1.95;;;;;;;;;;5068215;28;20016;-60
2022/04/22 12:27:35;;;;;;;0.43;0.43;;;;;;;;;;5068884;28;20056;-61
2022/04/22 12:30:04;;;;;;;2.33;2.13;;;;;;;;;;5070391;28;20477;-60
2022/04/22 12:32:31;;;;;;;0.00;0.00;;;;;;;;;;5048413;28;20418;-60
2022/04/22 12:35:09;;;;;;;1.65;1.33;;;;;;;;;;5069790;28;20354;-60
2022/04/22 12:37:34;;;;;;;0.43;0.43;;;;;;;;;;5068877;28;20032;-60
2022/04/22 12:40:07;;;;;;;1.10;1.10;;;;;;;;;;5069413;28;20099;-61
2022/04/22 12:42:34;;;;;;;3.67;1.17;;;;;;;;;;5069670;28;20024;-60
2022/04/22 12:54:04;;;;;;;1.50;1.50;;;;;;;;;;5067325;28;21073;-60
2022/04/22 12:56:29;;;;;;;2.10;2.00;;;;;;;;;;5067249;28;20107;-61
2022/04/22 12:59:01;;;;;;;1.65;1.55;;;;;;;;;;5067242;28;20032;-59
2022/04/22 13:01:26;;;;;;;2.17;2.00;;;;;;;;;;5066745;28;20024;-59
2022/04/22 13:03:51;;;;;;;2.78;1.35;;;;;;;;;;5065587;28;20032;-60
2022/04/22 13:06:35;;;;;;;0.88;0.70;;;;;;;;;;5069078;28;20040;-60
2022/04/22 13:09:00;;;;;;;2.38;1.95;;;;;;;;;;5048217;28;20111;-60
2022/04/22 13:11:26;;;;;;;1.92;1.83;;;;;;;;;;5068857;28;20124;-60
2022/04/22 13:13:51;;;;;;;1.20;1.20;;;;;;;;;;5068913;28;20461;-60
2022/04/22 13:16:16;;;;;;;1.85;1.75;;;;;;;;;;5066952;28;20074;-60
2022/04/22 13:18:41;;;;;;;0.80;0.80;;;;;;;;;;5068830;28;20024;-60
2022/04/22 13:21:06;;;;;;;2.40;1.93;;;;;;;;;;5069119;28;20040;-61
2022/04/22 13:23:33;;;;;;;0.95;0.95;;;;;;;;;;5067765;28;20364;-60
2022/04/22 13:25:59;;;;;;;1.02;1.00;;;;;;;;;;5067692;28;20877;-60
2022/04/22 13:28:25;;;;;;;1.42;1.33;;;;;;;;;;5068386;28;20040;-60
2022/04/22 13:30:50;;;;;;;0.20;0.20;;;;;;;;;;5067339;28;20035;-60
2022/04/22 13:33:15;;;;;;;1.42;1.38;;;;;;;;;;5066055;28;20017;-60
2022/04/22 13:35:40;;;;;;;0.52;0.52;;;;;;;;;;5064887;28;20119;-60
2022/04/22 13:38:06;;;;;;;3.72;1.35;;;;;;;;;;5067566;28;20236;-60
2022/04/22 13:40:31;;;;;;;0.98;0.98;;;;;;;;;;5066470;28;20017;-60
2022/04/22 13:42:56;;;;;;;1.80;1.70;;;;;;;;;;5068968;28;20032;-59
2022/04/22 13:53:33;;;;;;;0.77;0.77;;;;;;;;;;5067144;28;21625;-60
2022/04/22 13:56:00;;;;;;;3.77;3.47;;;;;;;;;;5066271;28;20021;-61
2022/04/22 13:58:26;;;;;;;0.60;0.60;;;;;;;;;;5045825;28;20413;-61
2022/04/22 14:00:52;;;;;;;0.55;0.55;;;;;;;;;;5065418;28;20396;-60
2022/04/22 14:03:19;;;;;;;2.33;1.05;;;;;;;;;;5067285;28;20122;-60
2022/04/22 14:05:45;;;;;;;3.70;2.38;;;;;;;;;;5067599;28;20025;-60
2022/04/22 14:08:10;;;;;;;3.78;3.20;;;;;;;;;;5041965;28;20031;-60
2022/04/22 14:10:36;;;;;;;2.20;2.03;;;;;;;;;;5066736;28;20488;-60
2022/04/22 14:13:01;;;;;;;2.55;2.35;;;;;;;;;;5068115;28;20381;-60
2022/04/22 14:15:26;;;;;;;1.92;1.83;;;;;;;;;;5067373;28;20028;-60
2022/04/22 14:17:52;;;;;;;12.15;4.30;;;;;;;;;;5068092;28;20017;-60
2022/04/22 14:20:17;;;;;;;4.45;3.70;;;;;;;;;;5066255;28;20025;-60
2022/04/22 14:22:43;;;;;;;2.22;2.08;;;;;;;;;;5067704;28;20024;-60
2022/04/22 14:25:08;;;;;;;3.33;2.00;;;;;;;;;;5066980;28;20063;-61
2022/04/22 14:27:34;;;;;;;2.65;2.47;;;;;;;;;;5067377;28;20048;-60
2022/04/22 14:29:59;;;;;;;3.28;2.97;;;;;;;;;;5067382;28;20784;-61
2022/04/22 14:32:24;;;;;;;3.38;3.17;;;;;;;;;;5067794;28;20028;-60
2022/04/22 14:34:50;;;;;;;3.53;2.72;;;;;;;;;;5067725;28;20431;-60
2022/04/22 14:37:15;;;;;;;1.38;1.30;;;;;;;;;;5067703;28;20493;-60
2022/04/22 14:39:41;;;;;;;4.07;1.80;;;;;;;;;;5068344;28;20025;-61
2022/04/22 14:42:07;;;;;;;3.15;2.67;;;;;;;;;;5066200;28;20043;-61
2022/04/22 14:44:32;;;;;;;2.45;2.25;;;;;;;;;;5067545;28;20028;-60
2022/04/22 14:46:58;;;;;;;2.55;2.17;;;;;;;;;;5067335;28;20032;-61
2022/04/22 14:49:23;;;;;;;3.40;1.98;;;;;;;;;;5065907;28;20066;-60
2022/04/22 14:51:50;;;;;;;1.13;1.02;;;;;;;;;;5067292;28;20020;-60
2022/04/22 14:54:15;;;;;;;2.25;1.63;;;;;;;;;;5067483;28;20035;-61
2022/04/22 14:56:40;;;;;;;3.70;3.25;;;;;;;;;;5066922;28;20016;-61
2022/04/22 14:59:06;;;;;;;1.35;1.23;;;;;;;;;;5066996;28;20023;-61
2022/04/22 15:01:31;;;;;;;3.33;3.13;;;;;;;;;;5066244;28;20021;-61
2022/04/22 15:03:56;;;;;;;1.85;1.75;;;;;;;;;;5066539;28;20036;-60
2022/04/22 15:06:22;;;;;;;0.10;0.10;;;;;;;;;;5067166;28;20409;-60
2022/04/22 15:08:47;;;;;;;3.28;2.95;;;;;;;;;;5068065;28;20465;-60
2022/04/22 15:11:12;;;;;;;3.50;1.85;;;;;;;;;;5067846;28;20016;-60
2022/04/22 15:13:37;;;;;;;1.02;1.02;;;;;;;;;;5068384;28;20088;-61
2022/04/22 15:16:03;;;;;;;2.72;2.33;;;;;;;;;;5067778;28;20044;-61
2022/04/22 15:24:17;;;;;;;3.08;2.80;;;;;;;;;;5067690;28;20036;-60
2022/04/22 15:26:43;;;;;;;2.65;2.45;;;;;;;;;;5066797;28;20035;-61
2022/04/22 15:29:08;;;;;;;8.77;3.33;;;;;;;;;;5067645;28;20103;-61
2022/04/22 15:31:34;;;;;;;4.30;2.97;;;;;;;;;;5066497;28;20483;-61
2022/04/22 15:33:59;;;;;;;3.33;3.00;;;;;;;;;;5066490;28;20024;-61
2022/04/22 15:36:24;;;;;;;4.43;3.08;;;;;;;;;;5066830;28;20024;-60
2022/04/22 15:38:50;;;;;;;2.95;2.38;;;;;;;;;;5067315;28;20028;-60
2022/04/22 15:41:22;;;;;;;2.90;2.55;;;;;;;;;;5068047;28;20035;-60
2022/04/22 15:43:51;;;;;;;5.25;3.03;;;;;;;;;;5070524;28;20086;-60
2022/04/22 15:46:17;;;;;;;2.85;2.42;;;;;;;;;;5070757;28;20021;-61
2022/04/22 15:48:42;;;;;;;5.13;3.28;;;;;;;;;;5069806;28;20389;-61
2022/04/22 15:51:09;;;;;;;3.90;3.53;;;;;;;;;;5070123;28;20016;-61
2022/04/22 15:53:35;;;;;;;5.90;4.43;;;;;;;;;;5070365;28;20020;-61
2022/04/22 15:56:01;;;;;;;2.88;2.67;;;;;;;;;;5069544;28;20397;-61
2022/04/22 15:58:28;;;;;;;4.88;3.58;;;;;;;;;;5069862;28;20025;-60